Time;durP1;ratioP1;P1;durP2;ratioP2;P2;SDS_P1;SDS_P2;PMS_P1;PMS_P2;Temp;Humidity;BMP_temperature;BMP_pressure;BME280_temperature;BME280_humidity;BME280_pressure;Samples;Min_cycle;Max_cycle;Signal;HPM_P1;HPM_P2
2022/04/25 00:01:46;;;;;;;20.57;11.43;;;8.60;99.90;;;;;;5089177;28;20050;-75
2022/04/25 00:04:12;;;;;;;18.37;10.93;;;8.60;99.90;;;;;;5066154;28;20514;-76
2022/04/25 00:06:38;;;;;;;14.50;10.63;;;8.70;99.90;;;;;;5071506;28;20103;-75
2022/04/25 00:09:05;;;;;;;16.77;11.63;;;8.70;99.90;;;;;;5056776;28;20551;-77
2022/04/25 00:11:30;;;;;;;14.77;10.47;;;8.70;99.90;;;;;;5053825;28;20055;-76
2022/04/25 00:13:56;;;;;;;19.00;11.53;;;8.70;99.90;;;;;;5056376;28;20465;-76
2022/04/25 00:16:22;;;;;;;19.90;11.10;;;8.70;99.90;;;;;;5072312;28;20122;-77
2022/04/25 00:18:49;;;;;;;17.37;11.37;;;8.70;99.90;;;;;;5066706;28;20044;-76
2022/04/25 00:21:14;;;;;;;16.10;11.07;;;8.80;99.90;;;;;;5071785;28;20089;-77
2022/04/25 00:23:40;;;;;;;22.40;12.37;;;8.80;99.90;;;;;;5053340;28;20036;-78
2022/04/25 00:26:07;;;;;;;20.97;12.73;;;8.80;99.90;;;;;;5058201;28;20491;-77
2022/04/25 00:28:33;;;;;;;18.27;12.00;;;8.80;99.90;;;;;;5084703;28;20055;-78
2022/04/25 00:30:59;;;;;;;20.17;11.87;;;8.80;99.90;;;;;;5070233;28;20040;-77
2022/04/25 00:33:26;;;;;;;20.40;12.77;;;8.80;99.90;;;;;;5072873;28;20044;-76
2022/04/25 00:35:52;;;;;;;23.37;13.87;;;8.80;99.90;;;;;;5061371;28;20046;-78
2022/04/25 00:38:18;;;;;;;19.03;12.63;;;8.80;99.90;;;;;;5058397;28;20554;-78
2022/04/25 00:40:44;;;;;;;19.40;13.00;;;8.80;99.90;;;;;;5101827;28;20054;-77
2022/04/25 00:43:11;;;;;;;20.43;12.70;;;8.80;99.90;;;;;;5058060;28;20035;-77
2022/04/25 00:45:37;;;;;;;19.70;13.07;;;8.70;99.90;;;;;;5068780;28;20056;-77
2022/04/25 00:48:03;;;;;;;19.33;12.67;;;8.80;99.90;;;;;;5086451;28;20039;-77
2022/04/25 00:50:29;;;;;;;20.10;13.00;;;8.70;99.90;;;;;;5063989;28;20403;-77
2022/04/25 00:52:56;;;;;;;22.70;14.17;;;8.70;99.90;;;;;;5059149;28;20041;-77
2022/04/25 00:55:21;;;;;;;21.43;13.83;;;8.80;99.90;;;;;;5045575;28;20043;-77
2022/04/25 00:57:48;;;;;;;22.20;14.53;;;8.80;99.90;;;;;;5065703;28;20093;-77
2022/04/25 01:00:16;;;;;;;18.03;12.73;;;8.80;99.90;;;;;;5060368;28;20418;-76
2022/04/25 01:02:42;;;;;;;21.00;13.57;;;8.80;99.90;;;;;;5083680;28;20055;-78
2022/04/25 01:05:09;;;;;;;18.53;13.03;;;8.80;99.90;;;;;;5079823;28;20040;-79
2022/04/25 01:07:36;;;;;;;20.07;14.40;;;8.80;99.90;;;;;;5078719;28;20056;-80
2022/04/25 01:10:03;;;;;;;21.27;14.20;;;8.70;99.90;;;;;;5070260;28;20040;-77
2022/04/25 01:12:28;;;;;;;19.63;14.20;;;8.70;99.90;;;;;;5058330;28;20063;-79
2022/04/25 01:14:58;;;;;;;19.57;14.17;;;8.70;99.90;;;;;;5062709;28;20500;-78
2022/04/25 01:17:26;;;;;;;22.20;14.57;;;8.70;99.90;;;;;;5067469;28;20107;-78
2022/04/25 01:19:52;;;;;;;20.67;14.00;;;8.70;99.90;;;;;;5039623;28;20686;-77
2022/04/25 01:22:21;;;;;;;20.83;14.60;;;8.70;99.90;;;;;;5051806;28;20052;-77
2022/04/25 01:27:33;;;;;;;20.30;14.33;;;8.70;99.90;;;;;;5072414;28;20048;-78
2022/04/25 01:29:59;;;;;;;25.03;15.20;;;8.70;99.90;;;;;;5084749;28;20574;-77
2022/04/25 01:32:24;;;;;;;19.30;14.03;;;8.60;99.90;;;;;;5051197;28;20048;-77
2022/04/25 01:34:50;;;;;;;20.43;15.17;;;8.60;99.90;;;;;;5068180;28;20593;-78
2022/04/25 01:37:17;;;;;;;21.80;15.20;;;8.60;99.90;;;;;;5074677;28;20066;-76
2022/04/25 01:39:46;;;;;;;22.27;15.90;;;8.60;99.90;;;;;;5065842;28;20039;-77
2022/04/25 01:42:14;;;;;;;21.70;15.30;;;8.60;99.90;;;;;;5071260;28;20039;-78
2022/04/25 01:44:40;;;;;;;22.07;14.43;;;8.50;99.90;;;;;;5063964;28;20120;-79
2022/04/25 01:47:06;;;;;;;22.97;15.47;;;8.50;99.90;;;;;;5084573;28;20058;-77
2022/04/25 01:49:33;;;;;;;20.77;14.93;;;8.40;99.90;;;;;;5065890;28;20040;-79
2022/04/25 01:52:01;;;;;;;22.53;15.63;;;8.30;99.90;;;;;;5120102;28;20038;-78
2022/04/25 01:54:27;;;;;;;25.33;15.13;;;8.30;99.90;;;;;;5060340;28;20119;-78
2022/04/25 01:56:54;;;;;;;25.43;16.17;;;8.30;99.90;;;;;;5108441;28;20074;-79
2022/04/25 01:59:21;;;;;;;24.30;15.67;;;8.20;99.90;;;;;;5106596;28;20085;-79
2022/04/25 02:01:47;;;;;;;24.27;15.57;;;8.10;99.90;;;;;;5074627;28;20075;-77
2022/04/25 02:04:13;;;;;;;22.23;15.10;;;8.10;99.90;;;;;;5052519;28;20571;-79
2022/04/25 02:06:39;;;;;;;24.97;15.00;;;8.00;99.90;;;;;;5093875;28;20075;-78
2022/04/25 02:09:05;;;;;;;26.83;15.93;;;8.00;99.90;;;;;;5103048;28;20047;-78
2022/04/25 02:11:31;;;;;;;26.07;16.50;;;7.90;99.90;;;;;;5114566;28;20066;-79
2022/04/25 02:13:57;;;;;;;24.20;15.87;;;7.90;99.90;;;;;;5059353;28;20047;-78
2022/04/25 02:16:25;;;;;;;25.17;16.23;;;7.80;99.90;;;;;;5062210;28;20178;-78
2022/04/25 02:18:51;;;;;;;20.87;15.07;;;7.80;99.90;;;;;;5057342;28;20049;-79
2022/04/25 02:21:17;;;;;;;24.37;15.70;;;7.80;99.90;;;;;;5087979;28;20047;-78
2022/04/25 02:23:44;;;;;;;23.13;15.40;;;7.70;99.90;;;;;;5075718;28;20098;-78
2022/04/25 02:26:10;;;;;;;25.80;16.10;;;7.70;99.90;;;;;;5054249;28;20040;-77
2022/04/25 02:28:37;;;;;;;24.97;15.57;;;7.60;99.90;;;;;;5074233;28;20089;-78
2022/04/25 02:31:04;;;;;;;26.07;15.97;;;7.60;99.90;;;;;;5066089;28;20522;-79
2022/04/25 02:33:32;;;;;;;24.03;15.73;;;7.60;99.90;;;;;;5041140;28;20081;-78
2022/04/25 02:35:58;;;;;;;25.83;16.30;;;7.60;99.90;;;;;;5062135;28;20043;-78
2022/04/25 02:38:23;;;;;;;24.97;16.07;;;7.70;99.90;;;;;;5076324;28;20128;-78
2022/04/25 02:41:04;;;;;;;27.57;15.43;;;7.70;99.90;;;;;;5070860;28;20462;-78
2022/04/25 02:43:31;;;;;;;24.47;16.00;;;7.70;99.90;;;;;;5073761;28;20035;-78
2022/04/25 02:45:57;;;;;;;22.70;15.77;;;7.70;99.90;;;;;;5080314;28;20047;-78
2022/04/25 02:48:22;;;;;;;24.40;15.30;;;7.70;99.90;;;;;;5063424;28;20040;-78
2022/04/25 02:50:49;;;;;;;25.73;16.17;;;7.80;99.90;;;;;;5059020;28;20036;-78
2022/04/25 02:53:15;;;;;;;27.37;16.10;;;7.80;99.90;;;;;;5055893;28;20039;-82
2022/04/25 02:55:41;;;;;;;23.47;15.30;;;7.80;99.90;;;;;;5053908;28;20055;-77
2022/04/25 02:58:08;;;;;;;27.47;16.33;;;7.80;99.90;;;;;;5055151;28;20040;-78
2022/04/25 03:00:34;;;;;;;24.00;15.47;;;7.80;99.90;;;;;;5080247;28;20036;-78
2022/04/25 03:03:00;;;;;;;21.93;15.90;;;7.80;99.90;;;;;;5062676;28;20040;-78
2022/04/25 03:05:26;;;;;;;23.67;15.30;;;7.90;99.90;;;;;;5043320;28;20048;-78
2022/04/25 03:07:53;;;;;;;29.83;16.57;;;7.90;99.90;;;;;;5073949;28;20471;-77
2022/04/25 03:10:18;;;;;;;21.63;14.83;;;7.80;99.90;;;;;;5083698;28;20572;-78
2022/04/25 03:12:45;;;;;;;24.97;14.73;;;7.80;99.90;;;;;;5075463;28;20410;-78
2022/04/25 03:15:11;;;;;;;22.80;14.20;;;7.80;99.90;;;;;;5083286;28;20039;-78
2022/04/25 03:17:38;;;;;;;26.73;14.63;;;7.80;99.90;;;;;;5071118;28;20054;-80
2022/04/25 03:20:05;;;;;;;25.10;15.27;;;7.80;99.90;;;;;;5065934;28;20071;-78
2022/04/25 03:22:31;;;;;;;28.37;15.13;;;7.80;99.90;;;;;;5057567;28;20569;-78
2022/04/25 03:24:58;;;;;;;30.57;15.93;;;7.80;99.90;;;;;;5056959;28;20040;-78
2022/04/25 03:27:24;;;;;;;27.60;15.33;;;7.80;99.90;;;;;;5066236;28;20079;-80
2022/04/25 03:29:50;;;;;;;27.90;15.03;;;7.80;99.90;;;;;;5066372;28;20507;-78
2022/04/25 03:32:15;;;;;;;22.30;15.07;;;7.80;99.90;;;;;;5084655;28;20115;-79
2022/04/25 03:34:42;;;;;;;24.93;14.50;;;7.80;99.90;;;;;;5064895;28;20037;-78
2022/04/25 03:37:09;;;;;;;25.77;14.10;;;7.80;99.90;;;;;;5065673;28;20039;-79
2022/04/25 03:39:34;;;;;;;24.73;14.67;;;7.80;99.90;;;;;;5073623;28;20221;-78
2022/04/25 03:42:01;;;;;;;23.33;14.27;;;7.80;99.90;;;;;;5057352;28;20147;-78
2022/04/25 03:44:27;;;;;;;23.03;14.87;;;7.80;99.90;;;;;;5081885;28;20580;-79
2022/04/25 03:46:53;;;;;;;28.50;15.80;;;7.90;99.90;;;;;;5086538;28;20076;-78
2022/04/25 03:49:19;;;;;;;24.80;15.53;;;7.80;99.90;;;;;;5064920;28;20119;-78
2022/04/25 03:51:44;;;;;;;23.83;15.40;;;7.80;99.90;;;;;;5069541;28;20036;-78
2022/04/25 03:54:10;;;;;;;25.00;15.27;;;7.80;99.90;;;;;;5062665;28;20045;-78
2022/04/25 03:59:21;;;;;;;;;;;7.80;99.90;;;;;;5077320;28;20047;-78
2022/04/25 04:01:47;;;;;;;24.93;14.77;;;7.80;99.90;;;;;;5080540;28;19977;-77
2022/04/25 04:04:13;;;;;;;25.63;14.97;;;7.80;99.90;;;;;;5059090;28;20261;-77
2022/04/25 04:06:38;;;;;;;26.50;15.40;;;7.80;99.90;;;;;;5081063;28;20079;-77
2022/04/25 04:09:44;;;;;;;24.80;15.33;;;7.80;99.90;;;;;;5057877;28;20044;-78
2022/04/25 04:11:50;;;;;;;26.17;15.03;;;7.80;99.90;;;;;;5076212;28;20040;-78
2022/04/25 04:14:16;;;;;;;29.00;15.37;;;7.80;99.90;;;;;;5071240;28;20484;-79
2022/04/25 04:16:43;;;;;;;28.00;15.60;;;7.80;99.90;;;;;;5073280;28;20521;-78
2022/04/25 04:19:10;;;;;;;23.30;14.80;;;7.80;99.90;;;;;;5056773;28;20051;-79
2022/04/25 04:21:35;;;;;;;24.90;15.50;;;7.80;99.90;;;;;;5065010;28;20048;-78
2022/04/25 04:24:01;;;;;;;22.30;15.20;;;7.80;99.90;;;;;;5090828;28;20498;-78
2022/04/25 04:26:28;;;;;;;26.50;14.70;;;7.80;99.90;;;;;;5065648;28;20530;-78
2022/04/25 04:28:56;;;;;;;25.33;15.10;;;7.90;99.90;;;;;;5056894;28;20044;-79
2022/04/25 04:31:21;;;;;;;27.30;16.33;;;7.90;99.90;;;;;;5057654;28;20043;-78
2022/04/25 04:33:48;;;;;;;24.47;14.30;;;7.90;99.90;;;;;;5077516;28;20122;-78
2022/04/25 04:36:22;;;;;;;24.93;14.30;;;7.90;99.90;;;;;;5083856;28;20067;-78
2022/04/25 04:38:48;;;;;;;24.30;14.63;;;7.90;99.90;;;;;;5065597;28;20048;-79
2022/04/25 04:41:13;;;;;;;21.13;14.53;;;7.90;99.90;;;;;;5081624;28;20140;-78
2022/04/25 04:43:39;;;;;;;26.03;14.93;;;7.90;99.90;;;;;;5072532;28;20093;-78
2022/04/25 04:46:05;;;;;;;24.60;13.97;;;8.00;99.90;;;;;;5073580;28;20055;-79
2022/04/25 04:48:31;;;;;;;21.93;14.13;;;8.00;99.90;;;;;;5068020;28;20068;-79
2022/04/25 04:50:58;;;;;;;19.10;13.10;;;8.00;99.90;;;;;;5066553;28;20037;-79
2022/04/25 04:53:24;;;;;;;28.53;15.43;;;8.00;99.90;;;;;;5044317;28;20059;-78
2022/04/25 04:55:51;;;;;;;23.87;14.97;;;8.00;99.90;;;;;;5065037;28;20120;-78
2022/04/25 04:58:17;;;;;;;25.37;14.23;;;8.00;99.90;;;;;;5055676;28;20040;-78
2022/04/25 05:00:44;;;;;;;20.77;13.70;;;8.10;99.90;;;;;;5050119;28;20060;-79
2022/04/25 05:03:11;;;;;;;24.57;14.40;;;8.10;99.90;;;;;;5077114;28;20514;-79
2022/04/25 05:05:36;;;;;;;26.93;13.83;;;8.10;99.90;;;;;;5094210;28;20507;-78
2022/04/25 05:08:04;;;;;;;21.83;13.70;;;8.10;99.90;;;;;;5054051;28;20073;-78
2022/04/25 05:10:29;;;;;;;26.83;13.97;;;8.10;99.90;;;;;;5074699;28;20043;-79
2022/04/25 05:12:55;;;;;;;24.17;14.67;;;8.10;99.90;;;;;;5085231;28;20039;-79
2022/04/25 05:15:22;;;;;;;21.13;12.87;;;8.20;99.90;;;;;;5051239;28;20500;-78
2022/04/25 05:17:48;;;;;;;21.07;12.63;;;8.20;99.90;;;;;;5063067;28;20535;-79
2022/04/25 05:20:14;;;;;;;23.07;14.47;;;8.20;99.90;;;;;;5049806;28;20053;-78
2022/04/25 05:22:44;;;;;;;18.13;13.60;;;8.20;99.90;;;;;;5069731;28;20437;-78
2022/04/25 05:25:12;;;;;;;20.63;13.53;;;8.20;99.90;;;;;;5082734;28;20071;-78
2022/04/25 05:27:38;;;;;;;19.93;12.83;;;8.30;99.90;;;;;;5073445;28;20116;-78
2022/04/25 05:30:05;;;;;;;18.73;13.30;;;8.30;99.90;;;;;;5053307;28;20039;-79
2022/04/25 05:32:44;;;;;;;20.57;12.33;;;8.30;99.90;;;;;;5066099;28;20475;-78
2022/04/25 05:35:11;;;;;;;22.57;13.17;;;8.30;99.90;;;;;;5079978;28;20050;-78
2022/04/25 05:37:37;;;;;;;23.47;13.27;;;8.30;99.90;;;;;;5048891;28;20036;-79
2022/04/25 05:40:04;;;;;;;21.80;12.87;;;8.30;99.90;;;;;;5085356;28;20067;-79
2022/04/25 05:42:31;;;;;;;19.60;12.33;;;8.30;99.90;;;;;;5070845;28;20700;-79
2022/04/25 05:44:57;;;;;;;21.50;12.13;;;8.30;99.90;;;;;;5076167;28;20393;-78
2022/04/25 05:47:23;;;;;;;19.83;13.37;;;8.30;99.90;;;;;;5075487;28;20177;-78
2022/04/25 05:52:33;;;;;;;18.45;12.68;;;8.40;99.90;;;;;;5051800;28;20048;-78
2022/04/25 05:54:59;;;;;;;19.10;12.43;;;8.40;99.90;;;;;;5059833;28;20050;-79
2022/04/25 05:57:25;;;;;;;18.00;11.73;;;8.40;99.90;;;;;;5072379;28;20134;-78
2022/04/25 05:59:52;;;;;;;19.53;12.67;;;8.40;99.90;;;;;;5076370;28;20051;-78
2022/04/25 06:02:18;;;;;;;21.10;12.00;;;8.50;99.90;;;;;;5078729;28;20051;-79
2022/04/25 06:04:43;;;;;;;22.20;12.13;;;8.50;99.90;;;;;;5039879;28;20419;-79
2022/04/25 06:07:09;;;;;;;19.30;12.10;;;8.60;99.90;;;;;;5057852;28;20051;-78
2022/04/25 06:09:35;;;;;;;20.67;12.97;;;8.70;99.90;;;;;;5075648;28;20139;-78
2022/04/25 06:12:02;;;;;;;20.13;12.50;;;8.80;99.90;;;;;;5068529;28;20422;-78
2022/04/25 06:14:31;;;;;;;22.37;13.23;;;8.80;99.90;;;;;;5039002;28;20117;-78
2022/04/25 06:17:00;;;;;;;19.80;13.10;;;8.90;99.90;;;;;;5066245;28;20048;-78
2022/04/25 06:19:26;;;;;;;18.60;11.93;;;8.90;99.90;;;;;;5054996;28;20072;-77
2022/04/25 06:21:52;;;;;;;17.60;12.03;;;9.00;99.90;;;;;;5072946;28;20126;-77
2022/04/25 06:24:18;;;;;;;22.43;12.87;;;9.00;99.90;;;;;;5082520;28;20047;-77
2022/04/25 06:26:49;;;;;;;18.03;12.67;;;9.00;99.90;;;;;;5069128;28;20048;-78
2022/04/25 06:29:15;;;;;;;23.50;12.77;;;9.00;99.90;;;;;;5048965;28;20047;-77
2022/04/25 06:31:41;;;;;;;21.33;13.53;;;9.00;99.90;;;;;;5072596;28;20040;-78
2022/04/25 06:34:08;;;;;;;19.43;13.20;;;9.00;99.90;;;;;;5070734;28;20035;-78
2022/04/25 06:36:36;;;;;;;19.13;13.83;;;9.00;99.90;;;;;;5036960;28;20040;-78
2022/04/25 06:39:03;;;;;;;21.30;14.10;;;9.00;99.90;;;;;;5041005;28;20419;-79
2022/04/25 06:41:28;;;;;;;19.70;13.50;;;9.00;99.90;;;;;;5073801;28;20040;-79
2022/04/25 06:43:54;;;;;;;18.53;12.97;;;9.00;99.90;;;;;;5051557;28;20067;-78
2022/04/25 06:46:20;;;;;;;19.37;13.30;;;8.90;99.90;;;;;;5073998;28;20048;-78
2022/04/25 06:49:19;;;;;;;20.30;13.00;;;8.90;99.90;;;;;;5035702;28;20115;-78
2022/04/25 06:51:33;;;;;;;19.10;12.97;;;8.90;99.90;;;;;;5071241;28;20765;-80
2022/04/25 06:53:59;;;;;;;22.83;12.97;;;8.80;99.90;;;;;;5075495;28;20104;-79
2022/04/25 06:56:25;;;;;;;17.87;13.37;;;8.80;99.90;;;;;;5070078;28;20036;-78
2022/04/25 06:58:50;;;;;;;19.83;12.80;;;8.70;99.90;;;;;;5066328;28;20110;-77
2022/04/25 07:01:16;;;;;;;18.93;12.47;;;8.60;99.90;;;;;;5050008;28;20052;-78
2022/04/25 07:03:42;;;;;;;21.53;13.30;;;8.60;99.90;;;;;;5073577;28;20056;-77
2022/04/25 07:06:07;;;;;;;18.63;12.47;;;8.60;99.90;;;;;;5054457;28;20123;-76
2022/04/25 07:08:34;;;;;;;17.87;12.03;;;8.60;99.90;;;;;;5055211;28;20048;-78
2022/04/25 07:11:00;;;;;;;17.27;11.23;;;8.60;99.90;;;;;;5070113;28;20454;-77
2022/04/25 07:13:26;;;;;;;18.30;10.90;;;8.60;99.90;;;;;;5049864;28;20055;-77
2022/04/25 07:15:51;;;;;;;18.23;11.17;;;8.60;99.90;;;;;;5066354;28;20047;-76
2022/04/25 07:18:17;;;;;;;17.10;10.33;;;8.60;99.90;;;;;;5064948;28;20781;-77
2022/04/25 07:20:43;;;;;;;15.80;10.80;;;8.60;99.90;;;;;;5051155;28;20044;-77
2022/04/25 07:28:52;;;;;;;16.70;10.30;;;8.60;99.90;;;;;;5049683;28;20044;-76
2022/04/25 07:31:18;;;;;;;14.07;8.90;;;8.60;99.90;;;;;;5065586;28;20126;-77
2022/04/25 07:33:45;;;;;;;18.57;10.27;;;8.50;99.90;;;;;;5069435;28;20462;-77
2022/04/25 07:36:12;;;;;;;13.97;10.13;;;8.50;99.90;;;;;;5058507;28;20550;-77
2022/04/25 07:38:39;;;;;;;16.77;10.60;;;8.50;99.90;;;;;;5053366;28;20573;-76
2022/04/25 07:41:10;;;;;;;17.80;11.03;;;8.40;99.90;;;;;;5070466;28;20048;-76
2022/04/25 07:43:36;;;;;;;14.90;10.17;;;8.40;99.90;;;;;;5053593;28;20047;-77
2022/04/25 07:46:02;;;;;;;15.50;10.37;;;8.40;99.90;;;;;;5049678;28;20093;-76
2022/04/25 07:48:28;;;;;;;18.13;11.13;;;8.40;99.90;;;;;;5065607;28;20125;-76
2022/04/25 07:50:54;;;;;;;18.60;11.07;;;8.40;99.90;;;;;;5035631;28;20519;-76
2022/04/25 07:53:20;;;;;;;13.63;10.70;;;8.40;99.90;;;;;;5051342;28;20411;-76
2022/04/25 07:55:45;;;;;;;17.33;10.20;;;8.40;99.90;;;;;;5065900;28;20044;-75
2022/04/25 07:58:12;;;;;;;17.80;11.00;;;8.50;99.90;;;;;;5068277;28;20167;-75
2022/04/25 08:00:41;;;;;;;16.50;10.70;;;8.50;99.90;;;;;;5075971;28;20047;-77
2022/04/25 08:03:08;;;;;;;19.47;10.63;;;8.50;99.90;;;;;;5055576;28;20510;-77
2022/04/25 08:05:33;;;;;;;17.00;12.23;;;8.50;99.90;;;;;;5070774;28;20047;-76
2022/04/25 08:07:59;;;;;;;19.97;11.37;;;8.50;99.90;;;;;;5051328;28;20036;-76
2022/04/25 08:10:25;;;;;;;16.90;11.30;;;8.50;99.90;;;;;;5051129;28;20048;-76
2022/04/25 08:18:25;;;;;;;18.63;12.20;;;8.70;99.90;;;;;;5031065;28;20110;-74
2022/04/25 08:20:52;;;;;;;17.87;11.07;;;8.70;99.90;;;;;;5031292;28;20530;-75
2022/04/25 08:23:18;;;;;;;17.03;11.30;;;8.80;99.90;;;;;;5052797;28;20051;-74
2022/04/25 08:25:44;;;;;;;18.27;10.83;;;8.80;99.90;;;;;;5059328;28;20036;-75
2022/04/25 08:28:10;;;;;;;17.03;12.57;;;8.80;99.90;;;;;;5061556;28;20138;-75
2022/04/25 08:30:36;;;;;;;18.50;12.10;;;8.80;99.90;;;;;;5049508;28;20518;-74
2022/04/25 08:33:04;;;;;;;19.80;11.87;;;8.90;99.90;;;;;;5040899;28;20130;-75
2022/04/25 08:35:30;;;;;;;21.23;12.60;;;9.00;99.90;;;;;;5047347;28;20157;-75
2022/04/25 08:37:56;;;;;;;19.83;13.40;;;8.90;99.90;;;;;;5067789;28;20831;-72
2022/04/25 08:40:22;;;;;;;21.00;13.70;;;9.00;99.90;;;;;;5048700;28;20040;-72
2022/04/25 08:42:48;;;;;;;21.33;14.90;;;9.00;99.90;;;;;;5053095;28;20093;-73
2022/04/25 08:45:14;;;;;;;18.43;13.17;;;8.90;99.90;;;;;;5055181;28;20450;-75
2022/04/25 08:47:46;;;;;;;20.30;13.33;;;8.90;99.90;;;;;;5053665;28;20398;-75
2022/04/25 08:50:15;;;;;;;22.00;14.17;;;8.90;99.90;;;;;;5037023;28;20054;-75
2022/04/25 08:52:41;;;;;;;20.63;13.43;;;9.00;99.90;;;;;;5040407;28;20044;-75
2022/04/25 08:55:07;;;;;;;18.57;13.47;;;9.10;99.90;;;;;;5041155;28;20609;-74
2022/04/25 08:57:35;;;;;;;18.50;12.07;;;9.20;99.90;;;;;;5041323;28;20315;-76
2022/04/25 09:00:04;;;;;;;18.10;12.90;;;9.30;99.90;;;;;;5071744;28;20044;-75
2022/04/25 09:02:30;;;;;;;14.57;11.67;;;9.40;99.90;;;;;;5046985;28;20044;-74
2022/04/25 09:04:56;;;;;;;15.53;11.43;;;9.50;99.90;;;;;;5065717;28;20048;-75
2022/04/25 09:07:23;;;;;;;16.87;11.70;;;9.60;99.90;;;;;;5074254;28;20043;-75
2022/04/25 09:09:49;;;;;;;17.13;10.93;;;9.80;99.90;;;;;;5070070;28;20048;-74
2022/04/25 09:12:17;;;;;;;16.93;10.27;;;9.90;99.90;;;;;;5031033;28;20028;-75
2022/04/25 09:14:45;;;;;;;14.50;10.90;;;9.90;99.90;;;;;;5064297;28;20239;-76
2022/04/25 09:17:11;;;;;;;14.63;10.27;;;9.80;99.90;;;;;;5073684;28;20043;-74
2022/04/25 09:19:39;;;;;;;16.73;9.97;;;9.80;99.90;;;;;;5045075;28;20047;-74
2022/04/25 09:22:06;;;;;;;15.50;10.27;;;9.80;99.90;;;;;;5079360;28;20036;-75
2022/04/25 09:24:36;;;;;;;18.30;10.33;;;9.90;99.90;;;;;;5074551;28;20079;-74
2022/04/25 09:27:13;;;;;;;16.03;9.40;;;10.00;99.90;;;;;;5072459;28;20419;-73
2022/04/25 09:29:41;;;;;;;12.90;8.57;;;10.20;99.90;;;;;;5057303;28;20079;-75
2022/04/25 09:32:09;;;;;;;12.70;8.43;;;10.30;99.90;;;;;;5076444;28;20040;-75
2022/04/25 09:37:39;;;;;;;12.53;8.63;;;10.20;99.90;;;;;;5077020;28;20202;-75
2022/04/25 09:40:08;;;;;;;12.83;8.37;;;10.10;99.90;;;;;;5061843;28;20036;-74
2022/04/25 09:42:33;;;;;;;14.13;8.80;;;9.90;99.90;;;;;;5062798;28;20081;-75
2022/04/25 09:45:00;;;;;;;15.47;9.90;;;9.80;99.90;;;;;;5055129;28;20047;-75
2022/04/25 09:47:29;;;;;;;15.60;9.03;;;9.70;99.90;;;;;;5075976;28;20064;-75
2022/04/25 09:49:58;;;;;;;17.80;9.67;;;9.60;99.90;;;;;;5076093;28;20529;-75
2022/04/25 09:52:24;;;;;;;16.07;9.00;;;9.60;99.90;;;;;;5064114;28;20047;-75
2022/04/25 09:54:50;;;;;;;15.50;9.77;;;9.50;99.90;;;;;;5075691;28;20052;-75
2022/04/25 09:57:29;;;;;;;14.97;9.50;;;9.50;99.90;;;;;;5076570;28;20114;-75
2022/04/25 09:59:56;;;;;;;16.37;8.53;;;9.40;99.90;;;;;;5060799;28;20044;-75
2022/04/25 10:02:22;;;;;;;15.50;8.80;;;9.50;99.90;;;;;;5081389;28;20545;-75
2022/04/25 10:04:48;;;;;;;15.50;8.27;;;9.50;99.90;;;;;;5061111;28;20054;-74
2022/04/25 10:07:15;;;;;;;12.67;8.07;;;9.60;99.90;;;;;;5062039;28;20043;-75
2022/04/25 10:09:43;;;;;;;14.47;8.17;;;9.70;99.90;;;;;;5054284;28;20128;-75
2022/04/25 10:12:09;;;;;;;11.83;7.83;;;9.80;99.90;;;;;;5062843;28;20487;-73
2022/04/25 10:14:37;;;;;;;13.73;7.83;;;9.80;99.90;;;;;;5081481;28;20045;-73
2022/04/25 10:17:03;;;;;;;15.73;7.60;;;9.80;99.90;;;;;;5076168;28;20043;-74
2022/04/25 10:19:32;;;;;;;11.10;7.83;;;9.90;99.90;;;;;;5076827;28;20046;-75
2022/04/25 10:21:59;;;;;;;12.60;7.93;;;9.90;99.90;;;;;;5062300;28;20044;-75
2022/04/25 10:24:24;;;;;;;14.23;7.67;;;9.90;99.90;;;;;;5064858;28;20036;-75
2022/04/25 10:26:53;;;;;;;14.37;7.63;;;9.80;99.90;;;;;;5077220;28;20039;-76
2022/04/25 10:29:25;;;;;;;11.47;7.77;;;9.80;99.90;;;;;;5068743;28;20049;-75
2022/04/25 10:31:57;;;;;;;13.07;7.47;;;9.80;99.90;;;;;;5055972;28;20116;-74
2022/04/25 10:34:44;;;;;;;11.83;7.10;;;9.80;99.90;;;;;;5078446;28;20577;-75
2022/04/25 10:37:28;;;;;;;14.03;7.03;;;9.80;99.90;;;;;;5060476;28;20042;-76
2022/04/25 10:39:55;;;;;;;10.50;6.83;;;9.90;99.90;;;;;;5076069;28;20052;-75
2022/04/25 10:45:05;;;;;;;12.40;7.50;;;10.00;99.90;;;;;;5068369;28;20044;-74
2022/04/25 10:47:32;;;;;;;14.53;7.30;;;10.10;99.90;;;;;;5075079;28;20043;-75
2022/04/25 10:50:06;;;;;;;12.10;7.20;;;10.20;99.90;;;;;;5062779;28;20055;-74
2022/04/25 10:52:55;;;;;;;11.83;6.63;;;10.30;99.90;;;;;;5056977;28;20036;-75
2022/04/25 10:55:42;;;;;;;11.70;7.17;;;10.40;99.90;;;;;;5076292;28;20471;-75
2022/04/25 10:58:21;;;;;;;11.20;7.40;;;10.60;99.90;;;;;;5074784;28;20072;-75
2022/04/25 11:00:49;;;;;;;12.73;7.40;;;10.90;99.90;;;;;;5057208;28;20139;-75
2022/04/25 11:03:18;;;;;;;15.13;7.20;;;11.20;99.90;;;;;;5072710;28;20045;-75
2022/04/25 11:05:45;;;;;;;13.77;7.10;;;11.50;99.90;;;;;;5076898;28;20054;-75
2022/04/25 11:08:49;;;;;;;11.43;7.20;;;11.60;99.90;;;;;;5076505;28;20071;-75
2022/04/25 11:11:18;;;;;;;11.30;6.47;;;11.80;99.90;;;;;;4977478;28;20525;-75
2022/04/25 11:14:11;;;;;;;10.20;7.07;;;12.00;99.90;;;;;;5042387;28;20113;-75
2022/04/25 11:16:39;;;;;;;13.00;7.28;;;12.10;99.90;;;;;;5021479;28;20073;-75
2022/04/25 11:19:08;;;;;;;14.13;7.20;;;12.20;99.90;;;;;;5082015;28;20035;-75
2022/04/25 11:21:34;;;;;;;8.20;6.83;;;12.30;99.90;;;;;;5079918;28;20055;-75
2022/04/25 11:24:01;;;;;;;10.53;7.30;;;12.30;99.90;;;;;;5062480;28;20040;-75
2022/04/25 11:26:56;;;;;;;12.43;7.20;;;12.30;99.90;;;;;;5082351;28;20052;-75
2022/04/25 11:29:21;;;;;;;;;;;12.10;99.90;;;;;;5062671;28;20404;-75
2022/04/25 11:31:47;;;;;;;14.87;7.97;;;12.00;99.90;;;;;;5075730;28;19938;-75
2022/04/25 11:34:15;;;;;;;12.57;8.00;;;12.00;99.90;;;;;;5079375;28;20046;-75
2022/04/25 11:36:43;;;;;;;12.00;7.93;;;12.10;99.90;;;;;;5078567;28;20059;-76
2022/04/25 11:41:56;;;;;;;10.23;7.83;;;12.50;99.90;;;;;;5088005;28;20044;-75
2022/04/25 11:44:22;;;;;;;10.47;7.30;;;12.50;99.90;;;;;;5067448;28;20039;-74
2022/04/25 11:46:49;;;;;;;11.77;7.53;;;12.40;99.90;;;;;;5071146;28;20423;-76
2022/04/25 11:49:27;;;;;;;12.43;7.77;;;12.20;99.90;;;;;;5047494;28;20047;-76
2022/04/25 11:51:53;;;;;;;15.57;8.20;;;12.30;99.90;;;;;;5061645;28;20054;-75
2022/04/25 11:54:19;;;;;;;11.57;7.50;;;12.40;99.90;;;;;;5073648;28;20047;-75
2022/04/25 11:56:45;;;;;;;12.33;7.03;;;12.80;99.90;;;;;;5055517;28;20431;-75
2022/04/25 11:59:14;;;;;;;10.50;7.17;;;13.10;99.90;;;;;;5065048;28;20032;-75
2022/04/25 12:01:41;;;;;;;9.67;7.20;;;13.20;99.90;;;;;;5071198;28;20055;-76
2022/04/25 12:04:16;;;;;;;9.83;6.80;;;13.30;99.90;;;;;;5065159;28;20070;-75
2022/04/25 12:06:47;;;;;;;11.10;6.80;;;13.30;99.90;;;;;;5049784;28;20129;-75
2022/04/25 12:17:39;;;;;;;11.67;6.40;;;13.60;99.90;;;;;;5060371;28;20044;-75
2022/04/25 12:20:09;;;;;;;11.87;6.87;;;13.70;99.90;;;;;;5052994;28;20101;-75
2022/04/25 12:22:36;;;;;;;8.50;6.80;;;13.80;99.90;;;;;;5069412;28;20077;-75
2022/04/25 12:25:13;;;;;;;9.90;6.77;;;14.00;99.90;;;;;;5056949;28;20509;-76
2022/04/25 12:27:41;;;;;;;9.23;6.87;;;14.20;99.90;;;;;;5059305;28;20044;-75
2022/04/25 12:30:08;;;;;;;9.33;6.37;;;14.40;99.90;;;;;;5065397;28;20193;-75
2022/04/25 12:32:35;;;;;;;11.17;6.80;;;14.90;99.90;;;;;;5056720;28;20086;-76
2022/04/25 12:35:01;;;;;;;11.00;6.77;;;15.30;99.90;;;;;;5061451;28;20127;-75
2022/04/25 12:37:28;;;;;;;10.57;6.53;;;15.60;99.90;;;;;;5073124;28;20423;-75
2022/04/25 12:40:00;;;;;;;12.47;6.43;;;15.80;99.90;;;;;;5068765;28;20435;-75
2022/04/25 12:42:44;;;;;;;9.03;6.27;;;16.20;99.90;;;;;;5058933;28;20040;-75
2022/04/25 12:45:10;;;;;;;12.52;7.45;;;16.10;99.90;;;;;;5065521;28;20052;-75
2022/04/25 12:47:36;;;;;;;10.90;6.90;;;15.80;99.80;;;;;;5072431;28;20426;-76
2022/04/25 12:50:03;;;;;;;10.87;6.70;;;15.40;99.90;;;;;;5058485;28;20047;-75
2022/04/25 12:52:45;;;;;;;12.83;7.60;;;15.10;99.90;;;;;;5057858;28;20589;-75
2022/04/25 12:55:11;;;;;;;12.23;7.50;;;14.90;99.90;;;;;;5075405;28;20573;-75
2022/04/25 12:57:37;;;;;;;9.87;7.37;;;14.80;99.90;;;;;;5075799;28;20090;-75
2022/04/25 13:00:04;;;;;;;14.27;7.20;;;14.70;99.90;;;;;;5060701;28;20384;-75
2022/04/25 13:02:39;;;;;;;11.50;7.77;;;14.60;99.90;;;;;;5079291;28;20052;-75
2022/04/25 13:05:07;;;;;;;14.80;7.43;;;14.50;99.90;;;;;;5066959;28;20130;-76
2022/04/25 13:07:37;;;;;;;12.23;7.50;;;14.40;99.90;;;;;;5073519;28;20039;-75
2022/04/25 13:10:06;;;;;;;11.80;7.63;;;14.30;99.90;;;;;;5074003;28;20559;-75
2022/04/25 13:12:34;;;;;;;13.67;8.10;;;14.10;99.90;;;;;;5057594;28;20035;-75
2022/04/25 13:15:00;;;;;;;13.20;8.07;;;14.00;99.90;;;;;;5067457;28;20119;-75
2022/04/25 13:17:25;;;;;;;11.03;7.23;;;13.80;99.90;;;;;;5087233;28;20120;-75